createdAt,value
2023-03-02T00:00:16.076Z,21.10
2023-03-02T00:02:45.560Z,21.27
2023-03-02T00:05:14.669Z,19.77
2023-03-02T00:07:42.538Z,14.53
2023-03-02T00:10:11.631Z,19.50
2023-03-02T00:12:39.460Z,17.53
2023-03-02T00:15:08.419Z,18.20
2023-03-02T00:17:37.138Z,15.80
2023-03-02T00:20:10.996Z,16.53
2023-03-02T00:22:38.868Z,19.80
2023-03-02T00:25:07.782Z,21.50
2023-03-02T00:27:35.867Z,22.80
2023-03-02T00:30:03.757Z,21.83
2023-03-02T00:32:31.614Z,20.50
2023-03-02T00:34:59.421Z,20.40
2023-03-02T00:37:28.645Z,22.63
2023-03-02T00:39:56.563Z,28.83
2023-03-02T00:42:24.658Z,19.00
2023-03-02T00:44:53.245Z,18.77
2023-03-02T00:47:21.038Z,26.17
2023-03-02T00:49:49.390Z,21.17
2023-03-02T00:52:17.554Z,24.87
2023-03-02T00:54:46.653Z,20.90
2023-03-02T00:57:14.404Z,17.80
2023-03-02T00:59:42.234Z,21.40
2023-03-02T01:02:10.235Z,22.87
2023-03-02T01:04:41.141Z,18.83
2023-03-02T01:07:11.567Z,21.33
2023-03-02T01:09:40.361Z,21.90
2023-03-02T01:12:11.234Z,25.50
2023-03-02T01:14:40.371Z,24.27
2023-03-02T01:17:09.848Z,20.70
2023-03-02T01:19:38.164Z,23.77
2023-03-02T01:22:06.356Z,25.70
2023-03-02T01:24:34.596Z,22.90
2023-03-02T01:27:02.370Z,20.80
2023-03-02T01:29:31.519Z,22.40
2023-03-02T01:31:59.402Z,24.27
2023-03-02T01:34:27.251Z,25.97
2023-03-02T01:36:55.349Z,21.63
2023-03-02T01:39:23.508Z,23.27
2023-03-02T01:41:53.124Z,20.37
2023-03-02T01:44:44.399Z,21.00
2023-03-02T01:47:16.709Z,16.93
2023-03-02T01:49:48.760Z,18.60
2023-03-02T01:52:17.349Z,25.30
2023-03-02T01:54:49.784Z,19.40
2023-03-02T01:57:22.691Z,19.53
2023-03-02T01:59:59.479Z,20.07
2023-03-02T02:02:28.094Z,20.10
2023-03-02T02:04:57.168Z,21.03
2023-03-02T02:07:24.986Z,23.30
2023-03-02T02:09:54.216Z,21.10
2023-03-02T02:12:24.290Z,20.67
2023-03-02T02:14:53.877Z,23.50
2023-03-02T02:17:21.764Z,21.10
2023-03-02T02:20:06.063Z,18.90
2023-03-02T02:22:42.790Z,20.83
2023-03-02T02:25:20.167Z,25.63
2023-03-02T02:27:49.604Z,20.47
2023-03-02T02:30:18.939Z,16.27
2023-03-02T02:32:48.721Z,18.07
2023-03-02T02:35:21.314Z,16.50
2023-03-02T02:37:52.543Z,17.83
2023-03-02T02:40:23.770Z,21.47
2023-03-02T02:42:54.187Z,20.50
2023-03-02T02:45:25.017Z,21.10
2023-03-02T02:47:54.191Z,21.77
2023-03-02T02:50:25.053Z,26.80
2023-03-02T02:52:58.339Z,25.63
2023-03-02T02:55:27.734Z,19.00
2023-03-02T02:58:00.436Z,17.87
2023-03-02T03:00:28.854Z,20.37
2023-03-02T03:03:02.879Z,19.23
2023-03-02T03:05:30.691Z,22.63
2023-03-02T03:08:08.774Z,16.97
2023-03-02T03:10:40.340Z,24.07
2023-03-02T03:13:11.091Z,24.47
2023-03-02T03:15:39.385Z,19.50
2023-03-02T03:18:07.212Z,24.77
2023-03-02T03:20:35.098Z,22.53
2023-03-02T03:23:02.881Z,18.70
2023-03-02T03:25:31.956Z,20.30
2023-03-02T03:27:59.701Z,22.23
2023-03-02T03:30:28.794Z,20.13
2023-03-02T03:32:56.600Z,23.60
2023-03-02T03:35:24.443Z,26.23
2023-03-02T03:37:52.303Z,21.90
2023-03-02T03:40:20.256Z,21.63
2023-03-02T03:42:48.022Z,16.10
2023-03-02T03:45:15.808Z,21.17
2023-03-02T03:47:44.918Z,17.10
2023-03-02T03:50:13.089Z,17.77
2023-03-02T03:52:40.866Z,20.43
2023-03-02T03:55:09.564Z,23.67
2023-03-02T03:57:37.425Z,22.13
2023-03-02T04:00:08.910Z,22.83
2023-03-02T04:02:37.169Z,25.70
2023-03-02T04:05:07.242Z,23.50
2023-03-02T04:07:35.440Z,21.10
2023-03-02T04:10:04.274Z,26.67
2023-03-02T04:12:32.130Z,17.30
2023-03-02T04:14:59.954Z,21.37
2023-03-02T04:17:27.952Z,19.63
2023-03-02T04:19:55.882Z,20.00
2023-03-02T04:22:25.012Z,24.70
2023-03-02T04:24:53.471Z,19.67
2023-03-02T04:27:21.316Z,19.67
2023-03-02T04:29:49.051Z,23.47
2023-03-02T04:32:16.952Z,20.43
2023-03-02T04:34:44.723Z,18.73
2023-03-02T04:37:13.257Z,27.87
2023-03-02T04:39:42.387Z,26.93
2023-03-02T04:42:10.160Z,19.37
2023-03-02T04:44:37.957Z,21.67
2023-03-02T04:47:05.810Z,22.50
2023-03-02T04:49:33.630Z,21.70
2023-03-02T04:52:01.437Z,23.53
2023-03-02T04:54:29.216Z,19.70
2023-03-02T04:56:58.476Z,29.50
2023-03-02T04:59:28.148Z,20.37
2023-03-02T05:01:57.054Z,18.67
2023-03-02T05:04:25.375Z,21.97
2023-03-02T05:06:53.285Z,26.77
2023-03-02T05:09:26.974Z,18.80
2023-03-02T05:11:55.627Z,20.57
2023-03-02T05:14:25.984Z,20.30
2023-03-02T05:16:53.919Z,20.87
2023-03-02T05:19:21.703Z,20.60
2023-03-02T05:21:49.532Z,18.17
2023-03-02T05:24:17.374Z,22.30
2023-03-02T05:26:45.268Z,21.50
2023-03-02T05:29:13.023Z,20.33
2023-03-02T05:31:44.841Z,20.90
2023-03-02T05:34:16.008Z,20.07
2023-03-02T05:36:44.945Z,23.10
2023-03-02T05:39:13.157Z,22.60
2023-03-02T05:41:42.257Z,22.30
2023-03-02T05:44:11.932Z,20.57
2023-03-02T05:46:40.018Z,19.17
2023-03-02T05:49:10.450Z,18.40
2023-03-02T05:51:38.198Z,20.47
2023-03-02T05:54:06.012Z,19.43
2023-03-02T05:56:34.157Z,19.97
2023-03-02T05:59:02.157Z,20.80
2023-03-02T06:01:29.991Z,19.73
2023-03-02T06:03:57.761Z,21.90
2023-03-02T06:06:26.935Z,23.10
2023-03-02T06:08:54.698Z,26.87
2023-03-02T06:11:22.470Z,22.27
2023-03-02T06:13:50.215Z,21.40
2023-03-02T06:16:18.023Z,18.40
2023-03-02T06:18:45.808Z,28.67
2023-03-02T06:21:13.690Z,19.47
2023-03-02T06:23:42.829Z,21.60
2023-03-02T06:26:11.619Z,22.43
2023-03-02T06:28:52.000Z,31.50
2023-03-02T06:31:20.939Z,23.60
2023-03-02T06:33:48.800Z,21.00
2023-03-02T06:36:17.001Z,26.97
2023-03-02T06:38:46.632Z,22.00
2023-03-02T06:41:14.401Z,22.63
2023-03-02T06:43:42.217Z,22.97
2023-03-02T06:46:10.629Z,22.20
2023-03-02T06:48:38.534Z,27.98
2023-03-02T06:51:07.612Z,25.90
2023-03-02T06:53:35.377Z,22.30
2023-03-02T06:56:04.975Z,21.37
2023-03-02T06:58:32.702Z,21.60
2023-03-02T07:01:00.530Z,30.53
2023-03-02T07:03:28.382Z,23.57
2023-03-02T07:05:56.440Z,26.33
2023-03-02T07:08:24.229Z,25.53
2023-03-02T07:10:51.956Z,29.10
2023-03-02T07:13:21.137Z,27.27
2023-03-02T07:15:48.929Z,25.37
2023-03-02T07:18:16.723Z,25.20
2023-03-02T07:20:44.472Z,24.00
2023-03-02T07:23:12.320Z,27.17
2023-03-02T07:25:40.096Z,26.83
2023-03-02T07:28:07.893Z,22.90
2023-03-02T07:30:36.997Z,27.30
2023-03-02T07:33:04.939Z,24.93
2023-03-02T07:35:32.749Z,28.20
2023-03-02T07:38:00.559Z,29.00
2023-03-02T07:40:28.420Z,29.17
2023-03-02T07:42:56.189Z,21.23
2023-03-02T07:45:24.901Z,26.70
2023-03-02T07:47:54.051Z,23.80
2023-03-02T07:50:21.839Z,29.23
2023-03-02T07:52:49.636Z,31.13
2023-03-02T07:55:17.599Z,30.00
2023-03-02T07:57:45.330Z,23.33
2023-03-02T08:00:13.989Z,25.60
2023-03-02T08:02:42.077Z,30.90
2023-03-02T08:05:12.381Z,23.80
2023-03-02T08:07:40.756Z,25.00
2023-03-02T08:10:09.356Z,20.87
2023-03-02T08:12:37.160Z,23.03
2023-03-02T08:15:05.633Z,21.77
2023-03-02T08:17:33.398Z,27.37
2023-03-02T08:20:01.390Z,26.70
2023-03-02T08:22:30.504Z,29.10
2023-03-02T08:24:58.275Z,25.73
2023-03-02T08:27:26.121Z,25.60
2023-03-02T08:29:54.351Z,26.53
2023-03-02T08:32:22.154Z,24.53
2023-03-02T08:34:51.714Z,26.37
2023-03-02T08:37:19.961Z,23.70
2023-03-02T08:39:49.388Z,27.87
2023-03-02T08:42:17.719Z,21.70
2023-03-02T08:44:45.693Z,27.20
2023-03-02T08:47:13.480Z,22.70
2023-03-02T08:49:41.402Z,24.07
2023-03-02T08:52:09.200Z,22.60
2023-03-02T08:54:40.480Z,28.23
2023-03-02T08:57:11.851Z,23.33
2023-03-02T08:59:39.659Z,26.80
2023-03-02T09:02:07.859Z,27.53
2023-03-02T09:04:35.692Z,23.53
2023-03-02T09:07:03.482Z,22.30
2023-03-02T09:09:31.222Z,23.60
2023-03-02T09:11:59.136Z,24.83
2023-03-02T09:14:28.365Z,47.30
2023-03-02T09:16:56.160Z,24.67
2023-03-02T09:19:24.052Z,24.00
2023-03-02T09:21:51.800Z,63.83
2023-03-02T09:24:19.660Z,30.93
2023-03-02T09:26:47.478Z,24.63
2023-03-02T09:29:15.285Z,22.50
2023-03-02T09:31:44.412Z,22.40
2023-03-02T09:34:12.211Z,61.80
2023-03-02T09:36:40.027Z,33.53
2023-03-02T09:39:12.424Z,22.10
2023-03-02T09:42:09.967Z,51.07
2023-03-02T09:45:06.481Z,26.10
2023-03-02T09:47:44.284Z,35.83
2023-03-02T09:50:25.404Z,20.07
2023-03-02T09:53:06.984Z,35.77
2023-03-02T09:55:37.105Z,21.07
2023-03-02T09:58:07.421Z,24.87
2023-03-02T10:00:38.022Z,36.77
2023-03-02T10:03:16.965Z,22.60
2023-03-02T10:05:47.755Z,37.77
2023-03-02T10:08:20.282Z,27.20
2023-03-02T10:10:54.349Z,26.20
2023-03-02T10:13:27.325Z,23.37
2023-03-02T10:16:10.654Z,28.23
2023-03-02T10:18:44.918Z,24.53
2023-03-02T10:21:21.423Z,21.27
2023-03-02T10:23:57.174Z,18.30
2023-03-02T10:26:37.900Z,21.37
2023-03-02T10:29:26.908Z,24.73
2023-03-02T10:32:00.190Z,18.33
2023-03-02T10:34:31.604Z,21.17
2023-03-02T10:36:59.847Z,20.70
2023-03-02T10:39:27.602Z,21.33
2023-03-02T10:42:00.283Z,23.07
2023-03-02T10:44:32.011Z,23.83
2023-03-02T10:46:59.970Z,16.83
2023-03-02T10:49:31.766Z,22.70
2023-03-02T10:52:02.440Z,21.30
2023-03-02T10:54:31.539Z,20.93
2023-03-02T10:57:01.896Z,20.87
2023-03-02T10:59:40.214Z,21.33
2023-03-02T11:02:16.446Z,21.03
2023-03-02T11:04:46.462Z,22.83
2023-03-02T11:07:18.323Z,20.30
2023-03-02T11:09:57.643Z,24.23
2023-03-02T11:12:25.650Z,22.80
2023-03-02T11:15:03.559Z,20.27
2023-03-02T11:17:34.309Z,16.50
2023-03-02T11:20:04.531Z,16.20
2023-03-02T11:22:39.264Z,18.03
2023-03-02T11:25:13.502Z,16.70
2023-03-02T11:27:44.643Z,21.03
2023-03-02T11:30:16.887Z,20.07
2023-03-02T11:32:51.912Z,19.77
2023-03-02T11:35:30.541Z,20.27
2023-03-02T11:38:03.547Z,24.13
2023-03-02T11:40:33.855Z,24.33
2023-03-02T11:43:04.703Z,22.20
2023-03-02T11:45:35.910Z,18.80
2023-03-02T11:48:07.338Z,19.77
2023-03-02T11:50:46.785Z,18.23
2023-03-02T11:53:18.755Z,15.70
2023-03-02T11:55:49.564Z,16.27
2023-03-02T11:58:20.644Z,20.70
2023-03-02T12:00:50.244Z,20.47
2023-03-02T12:03:22.779Z,22.03
2023-03-02T12:06:06.057Z,18.50
2023-03-02T12:08:41.597Z,19.40
2023-03-02T12:11:33.969Z,18.20
2023-03-02T12:14:03.613Z,23.10
2023-03-02T12:16:38.652Z,18.70
2023-03-02T12:19:15.022Z,16.17
2023-03-02T12:21:56.469Z,17.13
2023-03-02T12:24:27.251Z,19.70
2023-03-02T12:27:04.019Z,19.17
2023-03-02T12:29:41.028Z,26.00
2023-03-02T12:32:22.510Z,16.20
2023-03-02T12:34:55.688Z,13.03
2023-03-02T12:37:27.062Z,14.10
2023-03-02T12:40:22.905Z,15.00
2023-03-02T12:43:13.318Z,14.60
2023-03-02T12:45:58.848Z,16.10
2023-03-02T12:48:31.155Z,20.17
2023-03-02T12:51:02.599Z,15.63
2023-03-02T12:53:32.031Z,15.77
2023-03-02T12:55:59.835Z,13.83
2023-03-02T12:58:29.996Z,17.17
2023-03-02T13:01:01.913Z,17.57
2023-03-02T13:03:32.152Z,16.23
2023-03-02T13:06:04.081Z,12.83
2023-03-02T13:08:33.672Z,16.70
2023-03-02T13:11:02.961Z,19.13
2023-03-02T13:13:37.862Z,13.53
2023-03-02T13:16:08.106Z,15.00
2023-03-02T13:18:39.552Z,11.67
2023-03-02T13:21:11.448Z,15.27
2023-03-02T13:23:46.395Z,21.60
2023-03-02T13:26:26.302Z,11.40
2023-03-02T13:29:02.680Z,15.53
2023-03-02T13:31:31.873Z,14.40
2023-03-02T13:34:00.192Z,15.97
2023-03-02T13:36:30.937Z,13.63
2023-03-02T13:39:01.142Z,17.43
2023-03-02T13:41:30.941Z,17.67
2023-03-02T13:43:59.361Z,13.73
2023-03-02T13:46:36.512Z,12.70
2023-03-02T13:49:11.338Z,15.60
2023-03-02T13:51:41.867Z,10.23
2023-03-02T13:54:21.531Z,14.13
2023-03-02T13:56:52.019Z,16.90
2023-03-02T13:59:22.024Z,17.17
2023-03-02T14:01:50.273Z,17.30
2023-03-02T14:04:23.157Z,18.60
2023-03-02T14:06:51.537Z,18.67
2023-03-02T14:09:21.180Z,18.87
2023-03-02T14:11:51.544Z,14.87
2023-03-02T14:14:22.446Z,17.10
2023-03-02T14:16:50.695Z,16.50
2023-03-02T14:19:20.036Z,13.77
2023-03-02T14:21:47.870Z,19.23
2023-03-02T14:24:15.749Z,14.37
2023-03-02T14:26:47.297Z,21.03
2023-03-02T14:29:22.488Z,16.40
2023-03-02T14:31:50.378Z,14.73
2023-03-02T14:34:18.547Z,14.20
2023-03-02T14:36:49.457Z,18.27
2023-03-02T14:39:22.728Z,18.63
2023-03-02T14:41:54.061Z,13.67
2023-03-02T14:44:22.773Z,14.63
2023-03-02T14:46:50.776Z,20.33
2023-03-02T14:49:18.524Z,13.93
2023-03-02T14:52:00.240Z,16.53
2023-03-02T14:54:28.439Z,14.40
2023-03-02T14:56:57.838Z,23.60
2023-03-02T14:59:25.584Z,25.03
2023-03-02T15:01:53.398Z,28.77
2023-03-02T15:04:22.009Z,29.50
2023-03-02T15:06:49.838Z,27.03
2023-03-02T15:09:17.646Z,28.43
2023-03-02T15:11:45.587Z,26.97
2023-03-02T15:14:14.689Z,24.53
2023-03-02T15:16:42.726Z,35.40
2023-03-02T15:19:10.893Z,32.50
2023-03-02T15:21:41.496Z,26.50
2023-03-02T15:24:09.475Z,26.53
2023-03-02T15:26:38.960Z,25.37
2023-03-02T15:29:06.768Z,40.67
2023-03-02T15:31:36.227Z,26.13
2023-03-02T15:34:04.349Z,27.10
2023-03-02T15:36:32.117Z,31.67
2023-03-02T15:39:00.334Z,24.93
2023-03-02T15:41:28.164Z,29.90
2023-03-02T15:43:56.553Z,33.47
2023-03-02T15:46:25.124Z,25.90
2023-03-02T15:48:54.614Z,28.27
2023-03-02T15:51:22.547Z,29.43
2023-03-02T15:53:50.350Z,26.33
2023-03-02T15:56:18.427Z,26.30
2023-03-02T15:58:50.445Z,30.23
2023-03-02T16:01:18.333Z,29.53
2023-03-02T16:03:46.989Z,32.07
2023-03-02T16:06:16.622Z,28.73
2023-03-02T16:08:44.421Z,32.40
2023-03-02T16:11:13.197Z,36.60
2023-03-02T16:13:41.014Z,35.77
2023-03-02T16:16:10.276Z,31.30
2023-03-02T16:18:38.052Z,31.80
2023-03-02T16:21:06.049Z,32.90
2023-03-02T16:23:35.146Z,32.73
2023-03-02T16:26:08.787Z,30.77
2023-03-02T16:28:36.871Z,30.17
2023-03-02T16:31:05.138Z,35.20
2023-03-02T16:33:32.943Z,27.50
2023-03-02T16:36:00.752Z,28.77
2023-03-02T16:38:28.661Z,36.30
2023-03-02T16:40:57.785Z,35.00
2023-03-02T16:43:25.967Z,28.30
2023-03-02T16:45:53.957Z,37.40
2023-03-02T16:48:22.090Z,33.20
2023-03-02T16:50:56.601Z,31.30
2023-03-02T16:53:24.472Z,34.80
2023-03-02T16:55:52.275Z,39.90
2023-03-02T16:58:21.421Z,32.27
2023-03-02T17:00:49.197Z,44.23
2023-03-02T17:03:17.423Z,34.10
2023-03-02T17:05:45.343Z,31.07
2023-03-02T17:08:14.892Z,31.50
2023-03-02T17:10:43.218Z,33.00
2023-03-02T17:13:12.019Z,34.00
2023-03-02T17:15:41.224Z,39.60
2023-03-02T17:18:09.067Z,36.13
2023-03-02T17:20:37.366Z,34.73
2023-03-02T17:23:05.840Z,35.70
2023-03-02T17:25:33.617Z,32.20
2023-03-02T17:28:01.440Z,34.47
2023-03-02T17:30:29.266Z,33.03
2023-03-02T17:32:58.398Z,35.13
2023-03-02T17:35:26.164Z,38.30
2023-03-02T17:37:53.955Z,35.27
2023-03-02T17:40:21.973Z,31.67
2023-03-02T17:42:49.734Z,28.93
2023-03-02T17:45:19.286Z,32.30
2023-03-02T17:47:47.311Z,35.80
2023-03-02T17:50:17.070Z,32.50
2023-03-02T17:52:45.723Z,33.70
2023-03-02T17:55:13.650Z,31.70
2023-03-02T17:57:41.593Z,38.07
2023-03-02T18:00:14.905Z,30.60
2023-03-02T18:02:42.854Z,33.10
2023-03-02T18:05:11.860Z,34.13
2023-03-02T18:07:41.140Z,36.57
2023-03-02T18:10:11.112Z,39.33
2023-03-02T18:12:38.931Z,35.60
2023-03-02T18:15:07.925Z,33.97
2023-03-02T18:17:35.789Z,39.23
2023-03-02T18:20:04.419Z,30.50
2023-03-02T18:22:32.252Z,32.00
2023-03-02T18:25:01.413Z,37.13
2023-03-02T18:27:29.287Z,43.13
2023-03-02T18:29:57.122Z,33.57
2023-03-02T18:32:25.043Z,35.60
2023-03-02T18:34:52.866Z,37.57
2023-03-02T18:37:20.798Z,39.10
2023-03-02T18:39:48.709Z,38.37
2023-03-02T18:42:17.913Z,37.37
2023-03-02T18:44:45.851Z,36.97
2023-03-02T18:47:17.793Z,36.93
2023-03-02T18:49:45.792Z,37.50
2023-03-02T18:52:16.465Z,29.67
2023-03-02T18:54:44.378Z,40.87
2023-03-02T18:57:12.123Z,32.13
2023-03-02T18:59:41.400Z,42.20
2023-03-02T19:02:13.601Z,40.57
2023-03-02T19:04:41.479Z,41.83
2023-03-02T19:07:09.398Z,32.93
2023-03-02T19:09:37.170Z,32.97
2023-03-02T19:12:05.676Z,38.50
2023-03-02T19:14:33.437Z,38.83
2023-03-02T19:17:02.658Z,40.93
2023-03-02T19:19:31.035Z,45.10
2023-03-02T19:21:58.809Z,30.73
2023-03-02T19:24:26.584Z,41.50
2023-03-02T19:26:54.848Z,34.83
2023-03-02T19:29:23.193Z,49.83
2023-03-02T19:31:50.959Z,33.07
2023-03-02T19:34:20.154Z,37.20
2023-03-02T19:36:47.942Z,36.93
2023-03-02T19:39:15.685Z,35.30
2023-03-02T19:41:43.460Z,32.93
2023-03-02T19:44:12.455Z,40.63
2023-03-02T19:46:40.512Z,35.37
2023-03-02T19:49:08.283Z,34.87
2023-03-02T19:51:37.387Z,46.17
2023-03-02T19:54:05.495Z,37.50
2023-03-02T19:56:35.081Z,35.97
2023-03-02T19:59:03.171Z,41.03
2023-03-02T20:01:31.389Z,40.33
2023-03-02T20:03:59.933Z,33.50
2023-03-02T20:06:30.974Z,37.83
2023-03-02T20:09:02.372Z,36.77
2023-03-02T20:11:31.198Z,42.80
2023-03-02T20:14:01.992Z,40.77
2023-03-02T20:16:30.447Z,35.00
2023-03-02T20:18:58.412Z,40.10
2023-03-02T20:21:26.688Z,38.17
2023-03-02T20:23:54.943Z,36.17
2023-03-02T20:26:25.368Z,32.27
2023-03-02T20:28:55.352Z,43.03
2023-03-02T20:31:24.738Z,39.10
2023-03-02T20:33:55.603Z,39.40
2023-03-02T20:36:29.464Z,39.47
2023-03-02T20:39:00.122Z,37.07
2023-03-02T20:41:30.150Z,33.00
2023-03-02T20:43:58.261Z,33.47
2023-03-02T20:46:30.689Z,37.23
2023-03-02T20:48:58.822Z,35.40
2023-03-02T20:51:27.839Z,34.43
2023-03-02T20:53:55.702Z,34.30
2023-03-02T20:56:24.303Z,39.00
2023-03-02T20:58:53.485Z,33.20
2023-03-02T21:01:23.483Z,34.87
2023-03-02T21:03:52.687Z,39.90
2023-03-02T21:06:20.504Z,32.93
2023-03-02T21:08:48.315Z,34.40
2023-03-02T21:11:18.704Z,34.90
2023-03-02T21:13:48.150Z,35.93
2023-03-02T21:16:20.025Z,38.37
2023-03-02T21:18:47.959Z,37.90
2023-03-02T21:21:16.476Z,36.13
2023-03-02T21:23:44.230Z,32.53
2023-03-02T21:26:13.351Z,35.20
2023-03-02T21:28:43.916Z,39.37
2023-03-02T21:31:11.944Z,37.13
2023-03-02T21:33:41.464Z,40.83
2023-03-02T21:36:13.652Z,39.27
2023-03-02T21:38:41.396Z,40.50
2023-03-02T21:41:09.232Z,35.47
2023-03-02T21:43:37.287Z,38.77
2023-03-02T21:46:05.335Z,37.70
2023-03-02T21:48:33.194Z,38.20
2023-03-02T21:51:02.339Z,45.10
2023-03-02T21:53:30.398Z,41.23
2023-03-02T21:55:58.184Z,34.60
2023-03-02T21:58:26.011Z,36.27
2023-03-02T22:00:53.735Z,33.50
2023-03-02T22:03:21.696Z,43.40
2023-03-02T22:05:49.465Z,36.73
2023-03-02T22:08:20.628Z,36.50
2023-03-02T22:10:50.180Z,35.80
2023-03-02T22:13:23.612Z,34.97
2023-03-02T22:15:57.288Z,36.60
2023-03-02T22:18:26.974Z,38.97
2023-03-02T22:20:54.709Z,30.33
2023-03-02T22:23:27.418Z,37.50
2023-03-02T22:26:00.901Z,33.60
2023-03-02T22:28:29.275Z,41.83
2023-03-02T22:31:00.789Z,41.93
2023-03-02T22:33:30.426Z,34.37
2023-03-02T22:36:03.987Z,38.13
2023-03-02T22:38:33.182Z,33.03
2023-03-02T22:41:00.947Z,35.03
2023-03-02T22:43:30.467Z,34.50
2023-03-02T22:46:00.444Z,34.17
2023-03-02T22:48:30.041Z,35.03
2023-03-02T22:50:57.792Z,38.90
2023-03-02T22:53:28.631Z,32.17
2023-03-02T22:56:00.136Z,34.90
2023-03-02T23:01:04.385Z,29.10
2023-03-02T23:03:39.361Z,37.83
2023-03-02T23:06:28.628Z,36.80
2023-03-02T23:08:58.462Z,36.43
2023-03-02T23:11:28.819Z,30.60
2023-03-02T23:13:57.082Z,36.40
2023-03-02T23:16:26.920Z,36.30
2023-03-02T23:18:56.777Z,34.83
2023-03-02T23:21:28.510Z,32.77
2023-03-02T23:23:56.686Z,45.03
2023-03-02T23:26:24.491Z,35.60
2023-03-02T23:28:53.598Z,32.20
2023-03-02T23:31:21.454Z,33.43
2023-03-02T23:33:49.379Z,32.90
2023-03-02T23:36:17.543Z,37.83
2023-03-02T23:38:45.309Z,36.60
2023-03-02T23:41:13.087Z,33.97
2023-03-02T23:43:40.984Z,37.63
2023-03-02T23:46:13.816Z,37.57
2023-03-02T23:48:41.879Z,40.10
2023-03-02T23:51:09.813Z,34.77
2023-03-02T23:53:37.582Z,35.67
2023-03-02T23:56:05.846Z,39.90
2023-03-02T23:58:33.720Z,39.70
